Time;durP1;ratioP1;P1;durP2;ratioP2;P2;SDS_P1;SDS_P2;PMS_P1;PMS_P2;Temp;Humidity;BMP_temperature;BMP_pressure;BME280_temperature;BME280_humidity;BME280_pressure;Samples;Min_cycle;Max_cycle;Signal;HPM_P1;HPM_P2
2022/01/19 00:02:07;;;;;;;41.05;24.33;;;;;;;;;;5009427;28;20046;-63
2022/01/19 00:04:33;;;;;;;38.92;17.80;;;;;;;;;;5009793;28;20029;-63
2022/01/19 00:06:59;;;;;;;35.33;18.15;;;;;;;;;;5011210;28;20069;-63
2022/01/19 00:09:26;;;;;;;38.03;19.58;;;;;;;;;;5010552;28;20104;-63
2022/01/19 00:11:52;;;;;;;36.90;17.95;;;;;;;;;;5009959;28;20049;-63
2022/01/19 00:14:18;;;;;;;42.45;18.52;;;;;;;;;;5011263;28;20045;-63
2022/01/19 00:16:44;;;;;;;40.08;19.75;;;;;;;;;;5010879;28;20498;-63
2022/01/19 00:19:11;;;;;;;34.72;21.50;;;;;;;;;;5010325;28;20541;-63
2022/01/19 00:21:37;;;;;;;47.13;26.95;;;;;;;;;;5010093;28;20469;-63
2022/01/19 00:24:03;;;;;;;47.28;23.73;;;;;;;;;;5009067;28;20080;-63
2022/01/19 00:26:29;;;;;;;55.78;29.05;;;;;;;;;;5010155;28;20054;-63
2022/01/19 00:28:57;;;;;;;61.83;31.10;;;;;;;;;;5010985;28;20038;-63
2022/01/19 00:31:23;;;;;;;58.28;31.00;;;;;;;;;;5011036;28;20711;-62
2022/01/19 00:33:49;;;;;;;62.50;30.33;;;;;;;;;;5010043;28;20052;-63
2022/01/19 00:36:15;;;;;;;50.55;27.05;;;;;;;;;;5010495;28;20132;-63
2022/01/19 00:38:42;;;;;;;48.50;26.50;;;;;;;;;;5010929;28;20092;-63
2022/01/19 00:41:10;;;;;;;57.05;27.30;;;;;;;;;;5010185;28;20129;-63
2022/01/19 00:43:37;;;;;;;50.03;24.33;;;;;;;;;;5010804;28;20049;-63
2022/01/19 00:46:04;;;;;;;49.30;22.35;;;;;;;;;;5024537;28;20068;-63
2022/01/19 00:48:31;;;;;;;46.92;22.98;;;;;;;;;;5010826;28;20041;-63
2022/01/19 00:50:58;;;;;;;46.17;25.05;;;;;;;;;;5009106;28;20057;-63
2022/01/19 00:53:24;;;;;;;52.75;22.40;;;;;;;;;;5008792;28;20057;-63
2022/01/19 00:55:50;;;;;;;45.08;25.02;;;;;;;;;;5041800;28;20489;-63
2022/01/19 00:58:17;;;;;;;51.15;23.60;;;;;;;;;;5010761;28;20048;-63
2022/01/19 01:00:43;;;;;;;49.55;23.35;;;;;;;;;;5008254;28;20094;-63
2022/01/19 01:03:09;;;;;;;46.22;25.02;;;;;;;;;;5008843;28;20123;-63
2022/01/19 01:05:35;;;;;;;58.95;29.77;;;;;;;;;;5008960;28;20056;-63
2022/01/19 01:08:02;;;;;;;59.85;33.08;;;;;;;;;;5010690;28;20120;-63
2022/01/19 01:10:30;;;;;;;52.20;25.50;;;;;;;;;;5011312;28;20046;-63
2022/01/19 01:13:06;;;;;;;44.15;22.70;;;;;;;;;;5008376;28;20050;-63
2022/01/19 01:15:47;;;;;;;54.95;29.83;;;;;;;;;;5014282;28;20052;-63
2022/01/19 01:18:19;;;;;;;50.38;23.00;;;;;;;;;;5015333;28;20060;-63
2022/01/19 01:20:46;;;;;;;45.53;21.92;;;;;;;;;;5013506;28;20087;-63
2022/01/19 01:23:12;;;;;;;47.45;25.23;;;;;;;;;;5012311;28;20041;-63
2022/01/19 01:25:39;;;;;;;54.42;26.83;;;;;;;;;;5015125;28;20398;-63
2022/01/19 01:28:05;;;;;;;41.38;20.95;;;;;;;;;;5009051;28;20077;-63
2022/01/19 01:30:31;;;;;;;57.40;23.95;;;;;;;;;;5013198;28;20085;-63
2022/01/19 01:32:57;;;;;;;58.55;25.15;;;;;;;;;;5009220;28;20497;-63
2022/01/19 01:35:24;;;;;;;59.47;29.17;;;;;;;;;;5014326;28;20458;-63
2022/01/19 01:37:50;;;;;;;62.13;29.52;;;;;;;;;;5012530;28;20478;-63
2022/01/19 01:40:16;;;;;;;68.20;31.35;;;;;;;;;;5014439;28;20398;-63
2022/01/19 01:42:42;;;;;;;73.47;28.08;;;;;;;;;;5043536;28;20046;-63
2022/01/19 01:45:12;;;;;;;82.57;36.08;;;;;;;;;;5014979;28;20038;-63
2022/01/19 01:47:44;;;;;;;73.15;31.35;;;;;;;;;;5013810;28;20131;-63
2022/01/19 01:55:23;;;;;;;120.35;35.50;;;;;;;;;;5010251;28;20413;-63
2022/01/19 01:57:50;;;;;;;135.13;39.40;;;;;;;;;;5013337;28;20077;-62
2022/01/19 02:00:18;;;;;;;128.13;32.85;;;;;;;;;;5045246;28;20145;-62
2022/01/19 02:02:45;;;;;;;114.30;35.58;;;;;;;;;;5013307;28;20046;-63
2022/01/19 02:05:13;;;;;;;109.88;32.70;;;;;;;;;;5013200;28;20383;-63
2022/01/19 02:07:59;;;;;;;121.53;35.38;;;;;;;;;;5006406;28;20098;-63
2022/01/19 02:10:39;;;;;;;126.15;34.47;;;;;;;;;;5035075;28;20049;-62
2022/01/19 02:23:58;;;;;;;140.98;38.60;;;;;;;;;;5013150;28;20065;-63
2022/01/19 02:26:32;;;;;;;154.88;38.85;;;;;;;;;;5011873;28;20045;-62
2022/01/19 02:29:04;;;;;;;155.30;39.08;;;;;;;;;;5038182;28;20336;-62
2022/01/19 02:42:35;;;;;;;141.07;40.15;;;;;;;;;;5012698;28;20052;-62
2022/01/19 02:49:55;;;;;;;159.80;43.75;;;;;;;;;;5012609;28;20073;-63
2022/01/19 02:52:22;;;;;;;184.45;45.10;;;;;;;;;;5043639;28;20057;-63
2022/01/19 02:54:49;;;;;;;203.82;54.35;;;;;;;;;;5008562;28;20049;-63
2022/01/19 02:57:15;;;;;;;200.70;51.38;;;;;;;;;;5011869;28;20037;-63
2022/01/19 03:10:33;;;;;;;119.40;33.88;;;;;;;;;;5005462;28;20069;-62
2022/01/19 03:12:59;;;;;;;126.18;36.13;;;;;;;;;;5004061;28;20053;-63
2022/01/19 03:15:26;;;;;;;124.13;38.40;;;;;;;;;;5008450;28;20069;-62
2022/01/19 03:17:57;;;;;;;118.03;36.25;;;;;;;;;;5011188;28;20046;-63
2022/01/19 03:20:23;;;;;;;132.50;35.92;;;;;;;;;;5010339;28;20052;-62
2022/01/19 03:23:00;;;;;;;152.23;38.25;;;;;;;;;;5010788;28;20037;-63
2022/01/19 03:25:26;;;;;;;162.95;38.33;;;;;;;;;;5013181;28;20072;-63
2022/01/19 03:27:52;;;;;;;176.50;38.75;;;;;;;;;;5012119;28;20038;-63
2022/01/19 03:30:19;;;;;;;177.93;40.40;;;;;;;;;;5013263;28;20197;-63
2022/01/19 03:32:45;;;;;;;182.27;39.53;;;;;;;;;;5012774;28;20042;-62
2022/01/19 03:35:12;;;;;;;198.63;40.05;;;;;;;;;;5011054;28;20409;-63
2022/01/19 03:37:39;;;;;;;236.05;42.92;;;;;;;;;;5012970;28;20112;-63
2022/01/19 03:40:06;;;;;;;220.95;37.88;;;;;;;;;;5012812;28;20042;-62
2022/01/19 03:42:32;;;;;;;179.65;38.17;;;;;;;;;;5011863;28;20045;-63
2022/01/19 03:44:58;;;;;;;123.75;31.95;;;;;;;;;;5011078;28;20049;-63
2022/01/19 03:47:27;;;;;;;103.03;28.42;;;;;;;;;;5011262;28;20501;-63
2022/01/19 03:49:53;;;;;;;98.63;29.73;;;;;;;;;;5011299;28;20046;-63
2022/01/19 03:52:20;;;;;;;109.97;29.98;;;;;;;;;;5012279;28;20042;-63
2022/01/19 03:54:46;;;;;;;110.35;29.55;;;;;;;;;;5011744;28;20545;-63
2022/01/19 03:57:12;;;;;;;129.52;32.25;;;;;;;;;;5021416;28;20073;-63
2022/01/19 03:59:39;;;;;;;137.02;29.48;;;;;;;;;;5012255;28;20084;-63
2022/01/19 04:02:06;;;;;;;149.48;31.98;;;;;;;;;;5012170;28;20045;-62
2022/01/19 04:07:08;;;;;;;195.10;35.60;;;;;;;;;;5012142;28;20064;-62
2022/01/19 04:09:35;;;;;;;219.60;34.55;;;;;;;;;;5012389;28;20137;-63
2022/01/19 04:12:02;;;;;;;206.00;35.78;;;;;;;;;;5008507;28;21819;-63
2022/01/19 04:14:28;;;;;;;206.95;37.28;;;;;;;;;;5010360;28;20093;-62
2022/01/19 04:16:56;;;;;;;201.50;37.05;;;;;;;;;;5010879;28;20133;-62
2022/01/19 04:19:28;;;;;;;180.52;34.28;;;;;;;;;;5011647;28;20044;-63
2022/01/19 04:21:55;;;;;;;203.57;36.03;;;;;;;;;;5012178;28;20060;-62
2022/01/19 04:24:21;;;;;;;174.73;36.13;;;;;;;;;;5009858;28;20053;-63
2022/01/19 04:26:58;;;;;;;164.82;35.78;;;;;;;;;;5010317;28;20164;-62
2022/01/19 04:29:24;;;;;;;158.57;35.33;;;;;;;;;;5003875;28;20150;-63
2022/01/19 04:31:51;;;;;;;141.20;31.63;;;;;;;;;;5009089;28;20096;-63
2022/01/19 04:34:19;;;;;;;139.85;31.63;;;;;;;;;;5009809;28;20118;-62
2022/01/19 04:39:26;;;;;;;147.48;31.85;;;;;;;;;;5011060;28;20053;-63
2022/01/19 04:47:40;;;;;;;156.63;34.67;;;;;;;;;;5011079;28;20084;-63
2022/01/19 05:04:06;;;;;;;148.07;31.95;;;;;;;;;;5011197;28;20046;-62
2022/01/19 05:06:36;;;;;;;143.43;33.20;;;;;;;;;;5010688;28;20049;-63
2022/01/19 05:09:09;;;;;;;126.78;31.83;;;;;;;;;;5010511;28;20524;-63
2022/01/19 05:14:20;;;;;;;116.20;32.13;;;;;;;;;;5005548;28;20049;-62
2022/01/19 05:16:47;;;;;;;105.55;31.33;;;;;;;;;;5034473;28;20042;-62
2022/01/19 05:19:13;;;;;;;119.15;31.27;;;;;;;;;;5009036;28;20042;-63
2022/01/19 05:21:39;;;;;;;103.63;30.80;;;;;;;;;;5010093;28;20439;-63
2022/01/19 05:24:07;;;;;;;95.95;29.77;;;;;;;;;;5011463;28;20371;-63
2022/01/19 05:26:35;;;;;;;108.80;31.67;;;;;;;;;;5010987;28;20407;-63
2022/01/19 05:29:01;;;;;;;103.10;29.25;;;;;;;;;;5009388;28;20172;-63
2022/01/19 05:31:27;;;;;;;107.05;29.33;;;;;;;;;;5011012;28;20490;-63
2022/01/19 05:33:54;;;;;;;108.40;31.00;;;;;;;;;;5011150;28;20088;-63
2022/01/19 05:36:21;;;;;;;94.03;28.77;;;;;;;;;;5010232;28;20054;-63
2022/01/19 05:38:47;;;;;;;106.57;29.90;;;;;;;;;;5011278;28;20060;-63
2022/01/19 05:41:13;;;;;;;114.80;30.35;;;;;;;;;;5011236;28;20118;-63
2022/01/19 05:43:39;;;;;;;101.05;28.88;;;;;;;;;;5010526;28;20034;-62
2022/01/19 05:46:05;;;;;;;106.20;31.02;;;;;;;;;;5008294;28;20048;-62
2022/01/19 05:48:31;;;;;;;103.25;31.25;;;;;;;;;;5008630;28;20045;-63
2022/01/19 05:50:57;;;;;;;119.43;33.97;;;;;;;;;;5009535;28;20406;-62
2022/01/19 05:53:24;;;;;;;108.30;31.80;;;;;;;;;;5008205;28;20060;-63
2022/01/19 05:55:50;;;;;;;111.18;31.15;;;;;;;;;;5006395;28;20128;-63
2022/01/19 05:58:16;;;;;;;102.38;29.33;;;;;;;;;;5007586;28;20041;-62
2022/01/19 06:00:42;;;;;;;97.35;28.52;;;;;;;;;;5013541;28;20096;-64
2022/01/19 06:03:08;;;;;;;102.13;29.40;;;;;;;;;;5013462;28;20049;-63
2022/01/19 06:05:35;;;;;;;101.00;28.98;;;;;;;;;;5023169;28;20041;-63
2022/01/19 06:08:16;;;;;;;104.13;29.17;;;;;;;;;;5017989;28;20127;-63
2022/01/19 06:10:43;;;;;;;90.38;28.55;;;;;;;;;;5011797;28;20078;-63
2022/01/19 06:13:10;;;;;;;94.65;30.25;;;;;;;;;;5016324;28;20045;-64
2022/01/19 06:15:36;;;;;;;107.28;29.70;;;;;;;;;;5016100;28;20046;-64
2022/01/19 06:18:03;;;;;;;86.20;28.58;;;;;;;;;;5011130;28;20042;-63
2022/01/19 06:20:29;;;;;;;92.03;30.33;;;;;;;;;;5017008;28;20042;-62
2022/01/19 06:22:55;;;;;;;97.85;30.60;;;;;;;;;;5018290;28;20037;-63
2022/01/19 06:25:22;;;;;;;103.85;30.00;;;;;;;;;;5015421;28;20038;-63
2022/01/19 06:27:48;;;;;;;98.90;31.95;;;;;;;;;;5018496;28;20371;-63
2022/01/19 06:30:15;;;;;;;98.07;30.80;;;;;;;;;;5019003;28;20410;-64
2022/01/19 06:32:41;;;;;;;99.63;30.63;;;;;;;;;;5019694;28;20045;-63
2022/01/19 06:35:08;;;;;;;100.22;29.40;;;;;;;;;;5019733;28;20054;-64
2022/01/19 06:37:34;;;;;;;106.53;32.38;;;;;;;;;;5016600;28;20045;-63
2022/01/19 06:40:01;;;;;;;99.18;30.27;;;;;;;;;;5010941;28;20046;-63
2022/01/19 06:42:29;;;;;;;105.07;33.85;;;;;;;;;;5001759;28;20038;-63
2022/01/19 06:44:55;;;;;;;94.05;28.70;;;;;;;;;;4995754;28;20077;-63
2022/01/19 06:47:21;;;;;;;101.68;30.67;;;;;;;;;;5009877;28;20119;-63
2022/01/19 06:49:47;;;;;;;90.32;29.80;;;;;;;;;;5002824;28;20045;-63
2022/01/19 06:52:13;;;;;;;95.63;32.60;;;;;;;;;;5012145;28;20061;-63
2022/01/19 06:54:40;;;;;;;100.70;32.90;;;;;;;;;;5012439;28;20099;-63
2022/01/19 06:57:06;;;;;;;90.68;32.03;;;;;;;;;;5016641;28;20050;-62
2022/01/19 06:59:32;;;;;;;103.05;32.55;;;;;;;;;;4999989;28;20041;-63
2022/01/19 07:01:58;;;;;;;97.35;33.97;;;;;;;;;;5012784;28;20085;-64
2022/01/19 07:04:25;;;;;;;108.38;31.63;;;;;;;;;;5004189;28;20224;-62
2022/01/19 07:06:51;;;;;;;90.38;31.73;;;;;;;;;;5005654;28;20069;-62
2022/01/19 07:09:17;;;;;;;101.40;34.08;;;;;;;;;;5003659;28;20053;-63
2022/01/19 07:11:43;;;;;;;104.63;33.85;;;;;;;;;;5007709;28;20053;-63
2022/01/19 07:14:12;;;;;;;95.32;33.65;;;;;;;;;;5010119;28;20077;-62
2022/01/19 07:16:39;;;;;;;98.00;33.53;;;;;;;;;;5004044;28;20042;-62
2022/01/19 07:19:05;;;;;;;102.15;34.53;;;;;;;;;;5004218;28;20431;-63
2022/01/19 07:21:31;;;;;;;95.97;34.00;;;;;;;;;;5009555;28;20073;-63
2022/01/19 07:23:57;;;;;;;104.32;33.58;;;;;;;;;;4995652;28;20048;-63
2022/01/19 07:26:23;;;;;;;105.75;34.67;;;;;;;;;;5009201;28;20061;-62
2022/01/19 07:28:49;;;;;;;101.32;35.50;;;;;;;;;;4993308;28;20413;-62
2022/01/19 07:31:16;;;;;;;102.63;36.40;;;;;;;;;;4993504;28;20034;-63
2022/01/19 07:33:42;;;;;;;99.72;35.42;;;;;;;;;;4993922;28;20046;-63
2022/01/19 07:36:08;;;;;;;108.90;37.83;;;;;;;;;;4995980;28;20047;-69
2022/01/19 07:38:34;;;;;;;115.05;36.95;;;;;;;;;;5005690;28;20050;-69
2022/01/19 07:41:01;;;;;;;105.32;41.33;;;;;;;;;;5008999;28;20057;-69
2022/01/19 07:43:27;;;;;;;107.05;39.08;;;;;;;;;;4993303;28;20136;-64
2022/01/19 07:45:53;;;;;;;113.40;36.72;;;;;;;;;;4997231;28;20034;-64
2022/01/19 07:48:19;;;;;;;109.85;39.33;;;;;;;;;;4993544;28;20085;-64
2022/01/19 07:50:45;;;;;;;111.63;38.75;;;;;;;;;;4993753;28;20129;-64
2022/01/19 07:53:11;;;;;;;109.90;38.17;;;;;;;;;;4993812;28;20093;-64
2022/01/19 07:55:38;;;;;;;103.35;36.33;;;;;;;;;;4999646;28;20112;-64
2022/01/19 07:58:04;;;;;;;107.70;36.88;;;;;;;;;;5014631;28;20100;-64
2022/01/19 08:00:33;;;;;;;111.15;39.83;;;;;;;;;;5013710;28;20046;-64
2022/01/19 08:03:02;;;;;;;101.40;37.78;;;;;;;;;;5015358;28;20083;-65
2022/01/19 08:05:28;;;;;;;112.57;39.22;;;;;;;;;;5022171;28;20068;-64
2022/01/19 08:07:54;;;;;;;99.88;35.95;;;;;;;;;;5026063;28;20049;-64
2022/01/19 08:10:20;;;;;;;112.38;38.65;;;;;;;;;;5023720;28;20045;-64
2022/01/19 08:12:49;;;;;;;102.00;37.55;;;;;;;;;;5022318;28;20048;-65
2022/01/19 08:15:15;;;;;;;103.53;36.10;;;;;;;;;;5022701;28;20138;-62
2022/01/19 08:17:41;;;;;;;106.05;38.63;;;;;;;;;;5021267;28;20077;-63
2022/01/19 08:20:07;;;;;;;106.57;37.35;;;;;;;;;;5019904;28;20099;-62
2022/01/19 08:22:33;;;;;;;109.05;36.85;;;;;;;;;;5014289;28;20045;-64
2022/01/19 08:24:59;;;;;;;106.28;38.13;;;;;;;;;;5015336;28;20094;-64
2022/01/19 08:27:26;;;;;;;104.70;37.83;;;;;;;;;;5015385;28;20034;-64
2022/01/19 08:29:52;;;;;;;110.75;38.17;;;;;;;;;;5020758;28;20107;-64
2022/01/19 08:32:18;;;;;;;97.35;36.83;;;;;;;;;;5015272;28;20049;-67
2022/01/19 08:34:44;;;;;;;103.43;36.90;;;;;;;;;;5022240;28;20073;-66
2022/01/19 08:37:14;;;;;;;109.50;38.70;;;;;;;;;;5026728;28;20049;-65
2022/01/19 08:39:42;;;;;;;100.75;36.65;;;;;;;;;;5022718;28;20049;-65
2022/01/19 08:42:08;;;;;;;98.28;36.33;;;;;;;;;;5025641;28;20157;-64
2022/01/19 08:44:34;;;;;;;104.53;36.85;;;;;;;;;;5023678;28;20041;-74
2022/01/19 08:47:00;;;;;;;105.15;38.65;;;;;;;;;;5011241;28;20053;-62
2022/01/19 08:49:26;;;;;;;109.35;40.78;;;;;;;;;;5015644;28;20499;-62
2022/01/19 08:51:52;;;;;;;98.32;38.45;;;;;;;;;;5023024;28;20077;-62
2022/01/19 08:54:18;;;;;;;103.43;39.22;;;;;;;;;;5014336;28;20091;-62
2022/01/19 08:56:45;;;;;;;101.60;37.10;;;;;;;;;;5022703;28;20045;-62
2022/01/19 08:59:11;;;;;;;103.03;39.50;;;;;;;;;;5025319;28;20049;-62
2022/01/19 09:01:37;;;;;;;109.95;39.72;;;;;;;;;;5028792;28;20069;-63
2022/01/19 09:04:03;;;;;;;107.70;39.08;;;;;;;;;;5023543;28;20052;-62
2022/01/19 09:06:29;;;;;;;110.68;40.15;;;;;;;;;;5014186;28;20044;-62
2022/01/19 09:08:55;;;;;;;102.75;40.75;;;;;;;;;;5012664;28;20054;-62
2022/01/19 09:11:22;;;;;;;104.63;39.67;;;;;;;;;;5015277;28;20042;-62
2022/01/19 09:13:49;;;;;;;99.57;39.25;;;;;;;;;;5011879;28;20508;-62
2022/01/19 09:16:15;;;;;;;94.63;37.17;;;;;;;;;;5012610;28;20141;-62
2022/01/19 09:18:41;;;;;;;97.18;38.50;;;;;;;;;;5022945;28;20053;-62
2022/01/19 09:21:07;;;;;;;108.38;39.90;;;;;;;;;;5026141;28;20049;-63
2022/01/19 09:23:35;;;;;;;98.60;37.65;;;;;;;;;;5028556;28;20052;-62
2022/01/19 09:26:02;;;;;;;100.22;37.40;;;;;;;;;;5023996;28;20397;-62
2022/01/19 09:28:28;;;;;;;93.55;37.05;;;;;;;;;;5024548;28;20453;-63
2022/01/19 09:30:59;;;;;;;97.15;39.10;;;;;;;;;;5022992;28;20048;-62
2022/01/19 09:33:28;;;;;;;91.20;37.25;;;;;;;;;;5015163;28;20042;-63
2022/01/19 09:38:24;;;;;;;100.95;39.38;;;;;;;;;;5030077;28;20508;-63
2022/01/19 09:40:50;;;;;;;95.43;39.72;;;;;;;;;;5023189;28;20142;-62
2022/01/19 09:43:18;;;;;;;102.07;39.40;;;;;;;;;;5026528;28;20458;-63
2022/01/19 09:45:44;;;;;;;98.38;39.83;;;;;;;;;;5024386;28;20060;-63
2022/01/19 09:48:11;;;;;;;108.40;40.30;;;;;;;;;;5019099;28;20221;-62
2022/01/19 09:50:37;;;;;;;89.18;38.42;;;;;;;;;;5019695;28;20148;-63
2022/01/19 09:53:04;;;;;;;101.78;39.55;;;;;;;;;;5031378;28;20038;-62
2022/01/19 09:55:31;;;;;;;105.63;41.53;;;;;;;;;;5016506;28;20045;-62
2022/01/19 09:57:57;;;;;;;97.07;39.97;;;;;;;;;;5024284;28;20124;-62
2022/01/19 10:00:23;;;;;;;111.25;41.83;;;;;;;;;;5018548;28;20128;-62
2022/01/19 10:03:08;;;;;;;103.68;40.72;;;;;;;;;;5027456;28;20115;-62
2022/01/19 10:05:34;;;;;;;102.13;42.03;;;;;;;;;;5028537;28;20041;-61
2022/01/19 10:08:00;;;;;;;103.80;42.90;;;;;;;;;;5023833;28;20057;-62
2022/01/19 10:10:27;;;;;;;104.30;42.47;;;;;;;;;;5021999;28;20406;-62
2022/01/19 10:18:25;;;;;;;102.53;42.08;;;;;;;;;;5029569;28;20053;-62
2022/01/19 10:21:12;;;;;;;102.43;41.97;;;;;;;;;;5029887;28;20088;-62
2022/01/19 10:23:40;;;;;;;102.10;41.58;;;;;;;;;;5012719;28;20058;-62
2022/01/19 10:26:08;;;;;;;97.25;39.92;;;;;;;;;;5018020;28;20034;-63
2022/01/19 10:28:52;;;;;;;99.43;40.58;;;;;;;;;;5017906;28;20049;-62
2022/01/19 10:31:19;;;;;;;102.82;41.50;;;;;;;;;;5010838;28;20438;-62
2022/01/19 10:33:45;;;;;;;106.30;41.53;;;;;;;;;;5017593;28;20045;-62
2022/01/19 10:36:11;;;;;;;105.43;42.00;;;;;;;;;;5016788;28;20099;-62
2022/01/19 10:38:38;;;;;;;96.50;43.28;;;;;;;;;;5014432;28;20094;-61
2022/01/19 10:41:06;;;;;;;95.90;39.50;;;;;;;;;;5017633;28;20046;-62
2022/01/19 10:43:34;;;;;;;80.90;38.80;;;;;;;;;;5017689;28;20046;-61
2022/01/19 10:46:03;;;;;;;83.65;37.85;;;;;;;;;;5028322;28;20053;-62
2022/01/19 10:48:37;;;;;;;78.20;37.42;;;;;;;;;;5030657;28;20038;-62
2022/01/19 10:51:08;;;;;;;81.55;37.30;;;;;;;;;;5026853;28;20057;-62
2022/01/19 10:53:35;;;;;;;82.45;37.70;;;;;;;;;;5030405;28;20044;-62
2022/01/19 10:56:05;;;;;;;91.05;39.10;;;;;;;;;;5027288;28;20053;-62
2022/01/19 10:58:31;;;;;;;85.78;40.58;;;;;;;;;;5015657;28;20049;-62
2022/01/19 11:00:57;;;;;;;79.35;36.63;;;;;;;;;;5020198;28;20037;-62
2022/01/19 11:03:26;;;;;;;89.55;39.45;;;;;;;;;;5028928;28;20041;-62
2022/01/19 11:05:53;;;;;;;81.60;35.97;;;;;;;;;;5015500;28;20053;-62
2022/01/19 11:08:20;;;;;;;83.72;36.97;;;;;;;;;;5026317;28;20387;-62
2022/01/19 11:10:50;;;;;;;86.63;40.28;;;;;;;;;;5028208;28;20045;-62
2022/01/19 11:13:25;;;;;;;83.68;38.28;;;;;;;;;;5016344;28;20433;-62
2022/01/19 11:15:51;;;;;;;77.22;36.92;;;;;;;;;;5016989;28;20466;-62
2022/01/19 11:18:19;;;;;;;77.72;36.53;;;;;;;;;;5016197;28;20425;-62
2022/01/19 11:20:47;;;;;;;70.68;35.15;;;;;;;;;;5014626;28;20429;-62
2022/01/19 11:23:27;;;;;;;75.60;33.65;;;;;;;;;;5015919;28;20057;-62
2022/01/19 11:26:04;;;;;;;66.57;32.65;;;;;;;;;;5016583;28;20075;-62
2022/01/19 11:28:36;;;;;;;63.15;30.02;;;;;;;;;;5021447;28;20339;-63
2022/01/19 11:31:04;;;;;;;61.90;29.88;;;;;;;;;;5026993;28;20073;-62
2022/01/19 11:33:31;;;;;;;57.83;28.33;;;;;;;;;;5027534;28;20042;-62
2022/01/19 11:36:01;;;;;;;61.03;31.48;;;;;;;;;;5000344;28;20528;-62
2022/01/19 11:38:41;;;;;;;69.03;29.50;;;;;;;;;;5002028;28;20057;-62
2022/01/19 11:41:08;;;;;;;60.40;29.75;;;;;;;;;;5004455;28;20042;-62
2022/01/19 11:43:35;;;;;;;59.75;28.05;;;;;;;;;;5004114;28;20035;-62
2022/01/19 11:46:03;;;;;;;58.50;29.98;;;;;;;;;;5004078;28;20037;-62
2022/01/19 11:48:32;;;;;;;63.60;31.33;;;;;;;;;;5020103;28;20038;-62
2022/01/19 11:51:16;;;;;;;73.70;30.42;;;;;;;;;;5001446;28;20045;-62
2022/01/19 11:54:01;;;;;;;59.47;27.95;;;;;;;;;;5010798;28;20042;-62
2022/01/19 11:56:27;;;;;;;32.53;15.65;;;;;;;;;;5033936;28;20041;-62
2022/01/19 11:59:10;;;;;;;27.95;12.23;;;;;;;;;;5003429;28;20459;-61
2022/01/19 12:01:37;;;;;;;27.40;11.80;;;;;;;;;;5003303;28;20039;-62
2022/01/19 12:04:14;;;;;;;24.92;11.20;;;;;;;;;;5011596;28;20569;-62
2022/01/19 12:06:42;;;;;;;26.10;10.85;;;;;;;;;;5013388;28;20128;-62
2022/01/19 12:09:11;;;;;;;28.58;10.80;;;;;;;;;;5005545;28;20498;-61
2022/01/19 12:11:42;;;;;;;24.30;10.30;;;;;;;;;;5007515;28;20121;-61
2022/01/19 12:16:59;;;;;;;30.00;10.52;;;;;;;;;;5008942;28;20046;-62
2022/01/19 12:19:28;;;;;;;27.05;10.73;;;;;;;;;;5017880;28;20046;-62
2022/01/19 12:21:58;;;;;;;29.83;10.65;;;;;;;;;;5007009;28;20046;-62
2022/01/19 12:24:29;;;;;;;25.52;10.75;;;;;;;;;;5007039;28;20159;-62
2022/01/19 12:26:58;;;;;;;37.95;12.27;;;;;;;;;;4999811;28;20041;-62
2022/01/19 12:29:39;;;;;;;31.48;10.75;;;;;;;;;;5006484;28;20371;-62
2022/01/19 12:32:06;;;;;;;29.13;10.00;;;;;;;;;;5027606;28;20046;-62
2022/01/19 12:34:41;;;;;;;28.58;10.55;;;;;;;;;;5027201;28;20133;-62
2022/01/19 12:37:08;;;;;;;28.80;10.68;;;;;;;;;;5026975;28;20049;-62
2022/01/19 12:39:36;;;;;;;25.70;10.27;;;;;;;;;;5027314;28;20445;-62
2022/01/19 12:42:13;;;;;;;23.90;10.75;;;;;;;;;;5028938;28;20098;-62
2022/01/19 12:44:41;;;;;;;30.98;10.57;;;;;;;;;;5026447;28;20436;-62
2022/01/19 12:47:25;;;;;;;25.10;9.93;;;;;;;;;;5027374;28;20045;-62
2022/01/19 12:49:52;;;;;;;25.25;10.02;;;;;;;;;;5027438;28;20440;-62
2022/01/19 12:52:19;;;;;;;24.13;8.95;;;;;;;;;;5027960;28;20041;-62
2022/01/19 12:54:45;;;;;;;31.80;12.93;;;;;;;;;;5026797;28;20514;-62
2022/01/19 12:57:15;;;;;;;29.70;7.95;;;;;;;;;;5027497;28;20047;-62
2022/01/19 12:59:42;;;;;;;25.48;8.82;;;;;;;;;;5026061;28;20132;-62
2022/01/19 13:02:08;;;;;;;26.30;8.93;;;;;;;;;;5016052;28;20041;-62
2022/01/19 13:04:36;;;;;;;26.98;8.85;;;;;;;;;;5013610;28;20133;-62
2022/01/19 13:07:20;;;;;;;18.98;7.78;;;;;;;;;;5015856;28;20042;-62
2022/01/19 13:10:09;;;;;;;22.63;7.93;;;;;;;;;;5017039;28;20101;-62
2022/01/19 13:12:40;;;;;;;27.38;7.90;;;;;;;;;;5013365;28;20497;-62
2022/01/19 13:15:06;;;;;;;25.65;8.45;;;;;;;;;;5019141;28;20046;-62
2022/01/19 13:17:43;;;;;;;26.70;8.75;;;;;;;;;;5017959;28;20173;-63
2022/01/19 13:20:11;;;;;;;21.75;8.00;;;;;;;;;;5029959;28;20057;-63
2022/01/19 13:22:44;;;;;;;20.92;8.45;;;;;;;;;;5030503;28;20520;-62
2022/01/19 13:25:16;;;;;;;32.63;9.48;;;;;;;;;;5019258;28;20050;-62
2022/01/19 13:27:43;;;;;;;28.60;9.38;;;;;;;;;;5026945;28;20053;-62
2022/01/19 13:30:14;;;;;;;27.80;9.52;;;;;;;;;;5031594;28;20457;-62
2022/01/19 13:32:40;;;;;;;43.88;9.80;;;;;;;;;;5044983;28;20137;-62
2022/01/19 13:35:08;;;;;;;25.08;8.32;;;;;;;;;;5018660;28;20048;-62
2022/01/19 13:37:42;;;;;;;19.77;7.63;;;;;;;;;;5018011;28;20367;-62
2022/01/19 13:40:08;;;;;;;;;;;;;;;;;;5031470;28;20044;-62
2022/01/19 13:42:37;;;;;;;35.40;8.77;;;;;;;;;;5032084;28;19974;-62
2022/01/19 13:45:09;;;;;;;26.65;9.80;;;;;;;;;;5025538;28;20116;-62
2022/01/19 13:47:53;;;;;;;25.88;9.57;;;;;;;;;;5028725;28;20120;-62
2022/01/19 13:50:24;;;;;;;29.70;9.60;;;;;;;;;;5016406;28;20042;-62
2022/01/19 13:52:50;;;;;;;33.35;10.15;;;;;;;;;;5026539;28;20414;-62
2022/01/19 13:55:17;;;;;;;32.00;10.68;;;;;;;;;;5028478;28;20053;-62
2022/01/19 13:57:43;;;;;;;33.38;10.05;;;;;;;;;;5030107;28;20036;-62
2022/01/19 14:00:11;;;;;;;44.90;11.50;;;;;;;;;;5028133;28;20164;-66
2022/01/19 14:02:37;;;;;;;32.42;10.88;;;;;;;;;;5030012;28;20049;-66
2022/01/19 14:05:04;;;;;;;40.78;12.30;;;;;;;;;;5030493;28;20569;-66
2022/01/19 14:07:30;;;;;;;36.22;12.48;;;;;;;;;;5031590;28;20092;-66
2022/01/19 14:10:07;;;;;;;35.35;11.57;;;;;;;;;;5029541;28;20053;-66
2022/01/19 14:12:33;;;;;;;33.00;11.75;;;;;;;;;;5028684;28;20080;-66
2022/01/19 14:15:02;;;;;;;49.67;14.00;;;;;;;;;;5029597;28;20037;-66
2022/01/19 14:17:28;;;;;;;42.65;13.43;;;;;;;;;;5018380;28;20050;-62
2022/01/19 14:19:55;;;;;;;35.20;12.13;;;;;;;;;;5011304;28;20054;-62
2022/01/19 14:22:21;;;;;;;34.72;13.00;;;;;;;;;;5010530;28;20076;-62
2022/01/19 14:24:47;;;;;;;50.05;13.95;;;;;;;;;;5011439;28;20355;-62
2022/01/19 14:27:18;;;;;;;59.50;14.68;;;;;;;;;;5010322;28;20448;-63
2022/01/19 14:30:03;;;;;;;38.03;12.88;;;;;;;;;;5010553;28;20152;-64
2022/01/19 14:32:36;;;;;;;43.33;13.75;;;;;;;;;;5011469;28;20060;-64
2022/01/19 14:35:03;;;;;;;41.90;14.98;;;;;;;;;;5011007;28;20448;-64
2022/01/19 14:37:29;;;;;;;49.88;17.50;;;;;;;;;;5008611;28;20080;-64
2022/01/19 14:39:57;;;;;;;41.50;16.98;;;;;;;;;;5013365;28;20041;-73
2022/01/19 14:42:25;;;;;;;54.65;17.55;;;;;;;;;;5012563;28;20134;-63
2022/01/19 14:45:01;;;;;;;55.58;17.83;;;;;;;;;;5010212;28;20042;-63
2022/01/19 14:47:36;;;;;;;57.58;18.60;;;;;;;;;;5012031;28;20069;-63
2022/01/19 14:50:21;;;;;;;59.58;19.48;;;;;;;;;;5012353;28;20104;-63
2022/01/19 14:52:49;;;;;;;55.10;17.67;;;;;;;;;;5013164;28;20046;-63
2022/01/19 14:55:20;;;;;;;53.33;17.92;;;;;;;;;;5012159;28;20053;-63
2022/01/19 14:57:47;;;;;;;54.78;17.45;;;;;;;;;;4993086;28;20069;-63
2022/01/19 15:00:15;;;;;;;55.25;17.85;;;;;;;;;;5013461;28;20050;-63
2022/01/19 15:02:42;;;;;;;63.00;17.40;;;;;;;;;;5027649;28;20069;-63
2022/01/19 15:05:08;;;;;;;53.20;16.35;;;;;;;;;;5024492;28;20046;-63
2022/01/19 15:07:36;;;;;;;46.35;15.68;;;;;;;;;;5016646;28;20081;-63
2022/01/19 15:10:03;;;;;;;53.95;15.35;;;;;;;;;;5015036;28;20449;-63
2022/01/19 15:12:29;;;;;;;53.67;15.77;;;;;;;;;;5008829;28;20099;-63
2022/01/19 15:14:57;;;;;;;46.75;14.63;;;;;;;;;;5010165;28;20041;-63
2022/01/19 15:17:23;;;;;;;42.92;12.80;;;;;;;;;;5009683;28;20041;-63
2022/01/19 15:19:50;;;;;;;57.20;14.85;;;;;;;;;;5009392;28;20056;-63
2022/01/19 15:22:16;;;;;;;44.63;13.23;;;;;;;;;;5011867;28;20074;-63
2022/01/19 15:24:42;;;;;;;48.45;13.55;;;;;;;;;;5010592;28;20520;-63
2022/01/19 15:27:09;;;;;;;39.95;11.55;;;;;;;;;;5006741;28;20041;-63
2022/01/19 15:29:36;;;;;;;52.92;12.18;;;;;;;;;;5009159;28;20359;-65
2022/01/19 15:32:02;;;;;;;48.90;11.25;;;;;;;;;;5015444;28;20037;-63
2022/01/19 15:34:28;;;;;;;43.47;9.95;;;;;;;;;;5019803;28;20065;-63
2022/01/19 15:36:55;;;;;;;30.92;9.15;;;;;;;;;;5016854;28;20097;-63
2022/01/19 15:39:21;;;;;;;40.42;9.10;;;;;;;;;;5016601;28;20050;-63
2022/01/19 15:41:47;;;;;;;37.10;7.55;;;;;;;;;;5012992;28;20437;-63